sensor_id;sensor_type;location;lat;lon;timestamp;temperature;humidity
31735;DHT22;18313;48.518;9.124;2022-07-29T00:01:02;19.20;99.90
31735;DHT22;18313;48.518;9.124;2022-07-29T00:03:29;19.20;99.90
31735;DHT22;18313;48.518;9.124;2022-07-29T00:05:57;19.20;99.90
31735;DHT22;18313;48.518;9.124;2022-07-29T00:08:25;19.20;99.90
31735;DHT22;18313;48.518;9.124;2022-07-29T00:10:52;19.10;99.90
31735;DHT22;18313;48.518;9.124;2022-07-29T00:13:19;19.10;99.90
31735;DHT22;18313;48.518;9.124;2022-07-29T00:15:59;19.00;99.90
31735;DHT22;18313;48.518;9.124;2022-07-29T00:18:31;19.00;99.90
31735;DHT22;18313;48.518;9.124;2022-07-29T00:20:58;19.10;99.90
31735;DHT22;18313;48.518;9.124;2022-07-29T00:23:25;19.10;99.90
31735;DHT22;18313;48.518;9.124;2022-07-29T00:25:52;19.00;99.90
31735;DHT22;18313;48.518;9.124;2022-07-29T00:28:19;18.90;99.90
31735;DHT22;18313;48.518;9.124;2022-07-29T00:30:46;18.90;99.90
31735;DHT22;18313;48.518;9.124;2022-07-29T00:33:13;18.90;99.90
31735;DHT22;18313;48.518;9.124;2022-07-29T00:35:40;19.00;99.90
31735;DHT22;18313;48.518;9.124;2022-07-29T00:38:14;18.90;99.90
31735;DHT22;18313;48.518;9.124;2022-07-29T00:40:43;18.80;99.90
31735;DHT22;18313;48.518;9.124;2022-07-29T00:43:11;18.80;99.90
31735;DHT22;18313;48.518;9.124;2022-07-29T00:45:40;18.80;99.90
31735;DHT22;18313;48.518;9.124;2022-07-29T00:48:07;18.80;99.90
31735;DHT22;18313;48.518;9.124;2022-07-29T00:50:35;18.80;99.90
31735;DHT22;18313;48.518;9.124;2022-07-29T00:53:04;18.70;99.90
31735;DHT22;18313;48.518;9.124;2022-07-29T00:55:32;18.70;99.90
31735;DHT22;18313;48.518;9.124;2022-07-29T00:58:00;18.70;99.90
31735;DHT22;18313;48.518;9.124;2022-07-29T01:00:28;18.70;99.90
31735;DHT22;18313;48.518;9.124;2022-07-29T01:02:56;18.60;99.90
31735;DHT22;18313;48.518;9.124;2022-07-29T01:05:25;18.70;99.90
31735;DHT22;18313;48.518;9.124;2022-07-29T01:08:14;18.70;99.90
31735;DHT22;18313;48.518;9.124;2022-07-29T01:10:42;18.60;99.90
31735;DHT22;18313;48.518;9.124;2022-07-29T01:13:10;18.60;99.90
31735;DHT22;18313;48.518;9.124;2022-07-29T01:15:44;18.50;99.90
31735;DHT22;18313;48.518;9.124;2022-07-29T01:18:34;18.50;99.90
31735;DHT22;18313;48.518;9.124;2022-07-29T01:26:54;18.40;99.90
31735;DHT22;18313;48.518;9.124;2022-07-29T01:29:33;18.30;99.90
31735;DHT22;18313;48.518;9.124;2022-07-29T01:32:15;18.30;99.90
31735;DHT22;18313;48.518;9.124;2022-07-29T01:38:03;18.20;99.90
31735;DHT22;18313;48.518;9.124;2022-07-29T01:40:40;18.10;99.90
31735;DHT22;18313;48.518;9.124;2022-07-29T01:43:39;18.10;99.90
31735;DHT22;18313;48.518;9.124;2022-07-29T01:46:11;18.20;99.90
31735;DHT22;18313;48.518;9.124;2022-07-29T01:48:55;18.20;99.90
31735;DHT22;18313;48.518;9.124;2022-07-29T01:51:29;18.10;99.90
31735;DHT22;18313;48.518;9.124;2022-07-29T01:54:07;18.20;99.90
31735;DHT22;18313;48.518;9.124;2022-07-29T01:56:36;18.20;99.90
31735;DHT22;18313;48.518;9.124;2022-07-29T01:59:06;18.10;99.90
31735;DHT22;18313;48.518;9.124;2022-07-29T02:01:37;18.00;99.90
31735;DHT22;18313;48.518;9.124;2022-07-29T02:04:07;18.00;99.90
31735;DHT22;18313;48.518;9.124;2022-07-29T02:06:54;18.00;99.90
31735;DHT22;18313;48.518;9.124;2022-07-29T02:09:22;17.90;99.90
31735;DHT22;18313;48.518;9.124;2022-07-29T02:11:53;17.90;99.90
31735;DHT22;18313;48.518;9.124;2022-07-29T02:14:23;17.80;99.90
31735;DHT22;18313;48.518;9.124;2022-07-29T02:16:52;17.70;99.90
31735;DHT22;18313;48.518;9.124;2022-07-29T02:19:22;17.70;99.90
31735;DHT22;18313;48.518;9.124;2022-07-29T02:21:51;17.70;99.90
31735;DHT22;18313;48.518;9.124;2022-07-29T02:24:21;17.60;99.90
31735;DHT22;18313;48.518;9.124;2022-07-29T02:26:50;17.70;99.90
31735;DHT22;18313;48.518;9.124;2022-07-29T02:29:21;17.60;99.90
31735;DHT22;18313;48.518;9.124;2022-07-29T02:31:50;17.60;99.90
31735;DHT22;18313;48.518;9.124;2022-07-29T02:34:19;17.60;99.90
31735;DHT22;18313;48.518;9.124;2022-07-29T02:36:48;17.70;99.90
31735;DHT22;18313;48.518;9.124;2022-07-29T02:39:16;17.70;99.90
31735;DHT22;18313;48.518;9.124;2022-07-29T02:41:48;17.80;99.90
31735;DHT22;18313;48.518;9.124;2022-07-29T02:44:20;17.70;99.90
31735;DHT22;18313;48.518;9.124;2022-07-29T02:49:38;17.60;99.90
31735;DHT22;18313;48.518;9.124;2022-07-29T02:52:39;17.50;99.90
31735;DHT22;18313;48.518;9.124;2022-07-29T02:55:30;17.50;99.90
31735;DHT22;18313;48.518;9.124;2022-07-29T02:58:05;17.50;99.90
31735;DHT22;18313;48.518;9.124;2022-07-29T03:00:37;17.40;99.90
31735;DHT22;18313;48.518;9.124;2022-07-29T03:03:13;17.40;99.90
31735;DHT22;18313;48.518;9.124;2022-07-29T03:05:41;17.40;99.90
31735;DHT22;18313;48.518;9.124;2022-07-29T03:08:10;17.30;99.90
31735;DHT22;18313;48.518;9.124;2022-07-29T03:10:39;17.30;99.90
31735;DHT22;18313;48.518;9.124;2022-07-29T03:13:10;17.30;99.90
31735;DHT22;18313;48.518;9.124;2022-07-29T03:15:37;17.30;99.90
31735;DHT22;18313;48.518;9.124;2022-07-29T03:18:05;17.30;99.90
31735;DHT22;18313;48.518;9.124;2022-07-29T03:20:32;17.30;99.90
31735;DHT22;18313;48.518;9.124;2022-07-29T03:22:59;17.30;99.90
31735;DHT22;18313;48.518;9.124;2022-07-29T03:25:26;17.20;99.90
31735;DHT22;18313;48.518;9.124;2022-07-29T03:27:54;17.20;99.90
31735;DHT22;18313;48.518;9.124;2022-07-29T03:30:21;17.20;99.90
31735;DHT22;18313;48.518;9.124;2022-07-29T03:32:50;17.20;99.90
31735;DHT22;18313;48.518;9.124;2022-07-29T03:35:21;17.30;99.90
31735;DHT22;18313;48.518;9.124;2022-07-29T03:37:48;17.20;99.90
31735;DHT22;18313;48.518;9.124;2022-07-29T03:40:26;17.10;99.90
31735;DHT22;18313;48.518;9.124;2022-07-29T03:42:55;17.10;99.90
31735;DHT22;18313;48.518;9.124;2022-07-29T03:45:23;17.10;99.90
31735;DHT22;18313;48.518;9.124;2022-07-29T03:47:56;17.10;99.90
31735;DHT22;18313;48.518;9.124;2022-07-29T03:50:27;17.10;99.90
31735;DHT22;18313;48.518;9.124;2022-07-29T03:52:55;17.10;99.90
31735;DHT22;18313;48.518;9.124;2022-07-29T03:55:22;17.10;99.90
31735;DHT22;18313;48.518;9.124;2022-07-29T03:57:50;17.10;99.90
31735;DHT22;18313;48.518;9.124;2022-07-29T04:00:17;17.10;99.90
31735;DHT22;18313;48.518;9.124;2022-07-29T04:02:46;17.10;99.90
31735;DHT22;18313;48.518;9.124;2022-07-29T04:05:17;17.20;99.90
31735;DHT22;18313;48.518;9.124;2022-07-29T04:07:45;17.10;99.90
31735;DHT22;18313;48.518;9.124;2022-07-29T04:10:13;17.20;99.90
31735;DHT22;18313;48.518;9.124;2022-07-29T04:12:42;17.20;99.90
31735;DHT22;18313;48.518;9.124;2022-07-29T04:15:10;17.20;99.90
31735;DHT22;18313;48.518;9.124;2022-07-29T04:17:38;17.20;99.90
31735;DHT22;18313;48.518;9.124;2022-07-29T04:20:06;17.20;99.90
31735;DHT22;18313;48.518;9.124;2022-07-29T04:22:34;17.20;99.90
31735;DHT22;18313;48.518;9.124;2022-07-29T04:25:01;17.20;99.90
31735;DHT22;18313;48.518;9.124;2022-07-29T04:27:30;17.20;99.90
31735;DHT22;18313;48.518;9.124;2022-07-29T04:29:57;17.10;99.90
31735;DHT22;18313;48.518;9.124;2022-07-29T04:32:24;17.20;99.90
31735;DHT22;18313;48.518;9.124;2022-07-29T04:34:51;17.20;99.90
31735;DHT22;18313;48.518;9.124;2022-07-29T04:37:19;17.20;99.90
31735;DHT22;18313;48.518;9.124;2022-07-29T04:39:46;17.30;99.90
31735;DHT22;18313;48.518;9.124;2022-07-29T04:42:13;17.20;99.90
31735;DHT22;18313;48.518;9.124;2022-07-29T04:44:40;17.40;99.90
31735;DHT22;18313;48.518;9.124;2022-07-29T04:47:09;17.40;99.90
31735;DHT22;18313;48.518;9.124;2022-07-29T04:49:39;17.40;99.90
31735;DHT22;18313;48.518;9.124;2022-07-29T04:52:06;17.50;99.90
31735;DHT22;18313;48.518;9.124;2022-07-29T04:54:33;17.50;99.90
31735;DHT22;18313;48.518;9.124;2022-07-29T04:57:00;17.60;99.90
31735;DHT22;18313;48.518;9.124;2022-07-29T04:59:27;17.70;99.90
31735;DHT22;18313;48.518;9.124;2022-07-29T05:01:54;17.70;99.90
31735;DHT22;18313;48.518;9.124;2022-07-29T05:04:22;17.70;99.90
31735;DHT22;18313;48.518;9.124;2022-07-29T05:06:49;17.60;99.90
31735;DHT22;18313;48.518;9.124;2022-07-29T05:09:16;17.60;99.90
31735;DHT22;18313;48.518;9.124;2022-07-29T05:11:43;17.50;99.90
31735;DHT22;18313;48.518;9.124;2022-07-29T05:14:10;17.60;99.90
31735;DHT22;18313;48.518;9.124;2022-07-29T05:16:37;17.60;99.90
31735;DHT22;18313;48.518;9.124;2022-07-29T05:19:07;17.60;99.90
31735;DHT22;18313;48.518;9.124;2022-07-29T05:21:40;17.60;99.90
31735;DHT22;18313;48.518;9.124;2022-07-29T05:24:07;17.70;99.90
31735;DHT22;18313;48.518;9.124;2022-07-29T05:26:34;17.90;99.90
31735;DHT22;18313;48.518;9.124;2022-07-29T05:29:01;18.10;99.90
31735;DHT22;18313;48.518;9.124;2022-07-29T05:31:28;18.40;99.90
31735;DHT22;18313;48.518;9.124;2022-07-29T05:33:55;18.50;99.90
31735;DHT22;18313;48.518;9.124;2022-07-29T05:36:22;18.80;99.90
31735;DHT22;18313;48.518;9.124;2022-07-29T05:38:50;18.80;99.90
31735;DHT22;18313;48.518;9.124;2022-07-29T05:41:19;19.10;99.90
31735;DHT22;18313;48.518;9.124;2022-07-29T05:43:46;19.30;99.90
31735;DHT22;18313;48.518;9.124;2022-07-29T05:46:13;19.50;99.90
31735;DHT22;18313;48.518;9.124;2022-07-29T05:48:40;19.80;99.90
31735;DHT22;18313;48.518;9.124;2022-07-29T05:51:07;20.00;99.90
31735;DHT22;18313;48.518;9.124;2022-07-29T05:53:34;20.20;99.90
31735;DHT22;18313;48.518;9.124;2022-07-29T05:56:05;20.20;99.90
31735;DHT22;18313;48.518;9.124;2022-07-29T05:58:32;20.30;99.90
31735;DHT22;18313;48.518;9.124;2022-07-29T06:00:59;20.30;99.90
31735;DHT22;18313;48.518;9.124;2022-07-29T06:03:27;20.40;99.90
31735;DHT22;18313;48.518;9.124;2022-07-29T06:05:55;20.60;99.90
31735;DHT22;18313;48.518;9.124;2022-07-29T06:08:22;20.70;99.90
31735;DHT22;18313;48.518;9.124;2022-07-29T06:10:49;20.70;99.90
31735;DHT22;18313;48.518;9.124;2022-07-29T06:13:16;20.70;99.90
31735;DHT22;18313;48.518;9.124;2022-07-29T06:15:43;20.70;99.90
31735;DHT22;18313;48.518;9.124;2022-07-29T06:18:10;20.80;99.90
31735;DHT22;18313;48.518;9.124;2022-07-29T06:20:39;20.90;99.90
31735;DHT22;18313;48.518;9.124;2022-07-29T06:23:06;21.00;99.90
31735;DHT22;18313;48.518;9.124;2022-07-29T06:25:33;21.00;99.90
31735;DHT22;18313;48.518;9.124;2022-07-29T06:28:03;21.10;99.90
31735;DHT22;18313;48.518;9.124;2022-07-29T06:30:30;21.10;99.90
31735;DHT22;18313;48.518;9.124;2022-07-29T06:32:57;21.20;99.90
31735;DHT22;18313;48.518;9.124;2022-07-29T06:35:24;21.20;99.90
31735;DHT22;18313;48.518;9.124;2022-07-29T06:38:08;21.10;99.90
31735;DHT22;18313;48.518;9.124;2022-07-29T06:40:56;20.90;99.90
31735;DHT22;18313;48.518;9.124;2022-07-29T06:43:31;21.10;99.90
31735;DHT22;18313;48.518;9.124;2022-07-29T06:46:06;21.30;99.90
31735;DHT22;18313;48.518;9.124;2022-07-29T06:48:34;21.50;99.90
31735;DHT22;18313;48.518;9.124;2022-07-29T06:51:02;21.50;99.90
31735;DHT22;18313;48.518;9.124;2022-07-29T06:53:30;21.60;99.90
31735;DHT22;18313;48.518;9.124;2022-07-29T06:55:58;21.80;99.90
31735;DHT22;18313;48.518;9.124;2022-07-29T06:58:26;22.10;99.90
31735;DHT22;18313;48.518;9.124;2022-07-29T07:00:54;22.30;99.90
31735;DHT22;18313;48.518;9.124;2022-07-29T07:03:23;22.50;99.90
31735;DHT22;18313;48.518;9.124;2022-07-29T07:05:52;22.70;99.90
31735;DHT22;18313;48.518;9.124;2022-07-29T07:08:20;22.90;99.90
31735;DHT22;18313;48.518;9.124;2022-07-29T07:10:48;23.00;99.90
31735;DHT22;18313;48.518;9.124;2022-07-29T07:13:15;23.10;99.90
31735;DHT22;18313;48.518;9.124;2022-07-29T07:15:45;23.30;99.90
31735;DHT22;18313;48.518;9.124;2022-07-29T07:18:12;23.20;99.90
31735;DHT22;18313;48.518;9.124;2022-07-29T07:20:39;23.30;99.90
31735;DHT22;18313;48.518;9.124;2022-07-29T07:23:06;23.10;99.90
31735;DHT22;18313;48.518;9.124;2022-07-29T07:25:33;22.70;99.90
31735;DHT22;18313;48.518;9.124;2022-07-29T07:28:00;22.50;99.90
31735;DHT22;18313;48.518;9.124;2022-07-29T07:30:28;22.60;99.90
31735;DHT22;18313;48.518;9.124;2022-07-29T07:32:55;22.50;99.90
31735;DHT22;18313;48.518;9.124;2022-07-29T07:35:22;22.40;99.90
31735;DHT22;18313;48.518;9.124;2022-07-29T07:37:49;22.50;99.90
31735;DHT22;18313;48.518;9.124;2022-07-29T07:40:16;22.70;99.90
31735;DHT22;18313;48.518;9.124;2022-07-29T07:42:44;22.80;99.90
31735;DHT22;18313;48.518;9.124;2022-07-29T07:45:12;23.00;99.90
31735;DHT22;18313;48.518;9.124;2022-07-29T07:47:42;23.10;99.90
31735;DHT22;18313;48.518;9.124;2022-07-29T07:50:11;23.20;99.90
31735;DHT22;18313;48.518;9.124;2022-07-29T07:52:53;23.40;99.90
31735;DHT22;18313;48.518;9.124;2022-07-29T07:55:21;23.60;99.90
31735;DHT22;18313;48.518;9.124;2022-07-29T07:57:48;24.00;99.90
31735;DHT22;18313;48.518;9.124;2022-07-29T08:00:15;24.20;99.90
31735;DHT22;18313;48.518;9.124;2022-07-29T08:02:43;24.40;99.90
31735;DHT22;18313;48.518;9.124;2022-07-29T08:05:12;24.70;99.90
31735;DHT22;18313;48.518;9.124;2022-07-29T08:07:47;25.00;99.90
31735;DHT22;18313;48.518;9.124;2022-07-29T08:10:18;25.10;99.90
31735;DHT22;18313;48.518;9.124;2022-07-29T08:13:06;25.30;99.90
31735;DHT22;18313;48.518;9.124;2022-07-29T08:15:34;25.50;99.90
31735;DHT22;18313;48.518;9.124;2022-07-29T08:18:01;25.70;99.90
31735;DHT22;18313;48.518;9.124;2022-07-29T08:20:35;25.90;99.90
31735;DHT22;18313;48.518;9.124;2022-07-29T08:23:03;26.10;99.90
31735;DHT22;18313;48.518;9.124;2022-07-29T08:25:31;26.20;99.90
31735;DHT22;18313;48.518;9.124;2022-07-29T08:28:03;26.30;99.90
31735;DHT22;18313;48.518;9.124;2022-07-29T08:30:30;26.40;99.90
31735;DHT22;18313;48.518;9.124;2022-07-29T08:32:59;26.60;99.90
31735;DHT22;18313;48.518;9.124;2022-07-29T08:35:26;26.70;99.90
31735;DHT22;18313;48.518;9.124;2022-07-29T08:38:00;27.00;99.90
31735;DHT22;18313;48.518;9.124;2022-07-29T08:40:28;27.20;99.90
31735;DHT22;18313;48.518;9.124;2022-07-29T08:43:03;27.40;99.00
31735;DHT22;18313;48.518;9.124;2022-07-29T08:45:47;27.50;99.10
31735;DHT22;18313;48.518;9.124;2022-07-29T08:48:21;27.60;98.70
31735;DHT22;18313;48.518;9.124;2022-07-29T08:50:52;28.00;97.70
31735;DHT22;18313;48.518;9.124;2022-07-29T08:53:21;28.10;98.30
31735;DHT22;18313;48.518;9.124;2022-07-29T08:55:49;28.20;97.40
31735;DHT22;18313;48.518;9.124;2022-07-29T08:58:17;28.30;97.40
31735;DHT22;18313;48.518;9.124;2022-07-29T09:00:53;28.50;96.50
31735;DHT22;18313;48.518;9.124;2022-07-29T09:03:27;28.40;95.70
31735;DHT22;18313;48.518;9.124;2022-07-29T09:05:58;28.40;95.30
31735;DHT22;18313;48.518;9.124;2022-07-29T09:08:26;28.50;95.30
31735;DHT22;18313;48.518;9.124;2022-07-29T09:10:54;28.50;94.90
31735;DHT22;18313;48.518;9.124;2022-07-29T09:13:22;28.60;95.30
31735;DHT22;18313;48.518;9.124;2022-07-29T09:15:49;28.80;94.60
31735;DHT22;18313;48.518;9.124;2022-07-29T09:18:36;28.90;94.80
31735;DHT22;18313;48.518;9.124;2022-07-29T09:21:05;29.10;93.40
31735;DHT22;18313;48.518;9.124;2022-07-29T09:24:06;29.20;92.80
31735;DHT22;18313;48.518;9.124;2022-07-29T09:26:36;29.20;93.30
31735;DHT22;18313;48.518;9.124;2022-07-29T09:29:12;29.30;92.80
31735;DHT22;18313;48.518;9.124;2022-07-29T09:31:41;29.40;92.90
31735;DHT22;18313;48.518;9.124;2022-07-29T09:34:09;29.40;92.80
31735;DHT22;18313;48.518;9.124;2022-07-29T09:36:41;29.60;92.30
31735;DHT22;18313;48.518;9.124;2022-07-29T09:39:09;29.70;92.50
31735;DHT22;18313;48.518;9.124;2022-07-29T09:41:50;29.70;91.50
31735;DHT22;18313;48.518;9.124;2022-07-29T09:44:20;29.80;92.90
31735;DHT22;18313;48.518;9.124;2022-07-29T09:47:02;29.90;92.30
31735;DHT22;18313;48.518;9.124;2022-07-29T09:49:34;29.80;91.70
31735;DHT22;18313;48.518;9.124;2022-07-29T09:52:04;29.90;91.00
31735;DHT22;18313;48.518;9.124;2022-07-29T09:54:33;29.90;91.40
31735;DHT22;18313;48.518;9.124;2022-07-29T09:57:05;30.10;91.70
31735;DHT22;18313;48.518;9.124;2022-07-29T09:59:32;30.10;90.90
31735;DHT22;18313;48.518;9.124;2022-07-29T10:02:00;30.00;90.90
31735;DHT22;18313;48.518;9.124;2022-07-29T10:04:40;30.00;90.90
31735;DHT22;18313;48.518;9.124;2022-07-29T10:07:09;30.10;90.80
31735;DHT22;18313;48.518;9.124;2022-07-29T10:09:36;30.30;90.70
31735;DHT22;18313;48.518;9.124;2022-07-29T10:12:11;30.40;91.00
31735;DHT22;18313;48.518;9.124;2022-07-29T10:14:41;30.60;90.60
31735;DHT22;18313;48.518;9.124;2022-07-29T10:17:09;30.90;87.10
31735;DHT22;18313;48.518;9.124;2022-07-29T10:19:38;31.00;88.00
31735;DHT22;18313;48.518;9.124;2022-07-29T10:22:08;31.20;86.50
31735;DHT22;18313;48.518;9.124;2022-07-29T10:24:37;31.10;85.80
31735;DHT22;18313;48.518;9.124;2022-07-29T10:27:08;31.20;84.80
31735;DHT22;18313;48.518;9.124;2022-07-29T10:29:36;30.80;83.40
31735;DHT22;18313;48.518;9.124;2022-07-29T10:35:03;30.00;87.50
31735;DHT22;18313;48.518;9.124;2022-07-29T10:43:47;30.60;86.60
31735;DHT22;18313;48.518;9.124;2022-07-29T10:46:18;30.80;88.60
31735;DHT22;18313;48.518;9.124;2022-07-29T10:49:20;31.00;88.00
31735;DHT22;18313;48.518;9.124;2022-07-29T10:52:08;30.90;85.50
31735;DHT22;18313;48.518;9.124;2022-07-29T10:59:43;30.60;84.30
31735;DHT22;18313;48.518;9.124;2022-07-29T11:05:14;31.10;85.00
31735;DHT22;18313;48.518;9.124;2022-07-29T11:10:48;31.60;83.30
31735;DHT22;18313;48.518;9.124;2022-07-29T11:16:12;31.10;82.20
31735;DHT22;18313;48.518;9.124;2022-07-29T11:21:44;31.30;84.30
31735;DHT22;18313;48.518;9.124;2022-07-29T11:24:31;31.50;81.30
31735;DHT22;18313;48.518;9.124;2022-07-29T11:27:38;31.60;81.20
31735;DHT22;18313;48.518;9.124;2022-07-29T11:30:06;31.20;81.30
31735;DHT22;18313;48.518;9.124;2022-07-29T11:32:38;30.60;83.10
31735;DHT22;18313;48.518;9.124;2022-07-29T11:35:22;30.10;82.60
31735;DHT22;18313;48.518;9.124;2022-07-29T11:38:27;29.70;81.30
31735;DHT22;18313;48.518;9.124;2022-07-29T11:43:51;29.70;78.90
31735;DHT22;18313;48.518;9.124;2022-07-29T11:46:48;29.60;81.30
31735;DHT22;18313;48.518;9.124;2022-07-29T11:49:20;29.60;78.40
31735;DHT22;18313;48.518;9.124;2022-07-29T11:52:00;29.50;79.70
31735;DHT22;18313;48.518;9.124;2022-07-29T11:54:33;29.20;82.70
31735;DHT22;18313;48.518;9.124;2022-07-29T11:57:20;29.00;80.20
31735;DHT22;18313;48.518;9.124;2022-07-29T11:59:47;29.00;83.70
31735;DHT22;18313;48.518;9.124;2022-07-29T12:02:16;29.30;81.70
31735;DHT22;18313;48.518;9.124;2022-07-29T12:05:03;29.70;81.00
31735;DHT22;18313;48.518;9.124;2022-07-29T12:07:38;29.60;81.20
31735;DHT22;18313;48.518;9.124;2022-07-29T12:10:07;29.80;82.20
31735;DHT22;18313;48.518;9.124;2022-07-29T12:12:51;29.90;79.80
31735;DHT22;18313;48.518;9.124;2022-07-29T12:15:19;29.50;78.90
31735;DHT22;18313;48.518;9.124;2022-07-29T12:17:48;29.10;82.60
31735;DHT22;18313;48.518;9.124;2022-07-29T12:20:29;28.30;86.00
31735;DHT22;18313;48.518;9.124;2022-07-29T12:22:56;27.40;85.70
31735;DHT22;18313;48.518;9.124;2022-07-29T12:25:24;26.60;87.20
31735;DHT22;18313;48.518;9.124;2022-07-29T12:28:01;25.90;89.20
31735;DHT22;18313;48.518;9.124;2022-07-29T12:30:41;25.60;90.80
31735;DHT22;18313;48.518;9.124;2022-07-29T12:33:12;25.80;89.30
31735;DHT22;18313;48.518;9.124;2022-07-29T12:35:40;25.70;90.30
31735;DHT22;18313;48.518;9.124;2022-07-29T12:38:10;26.00;90.80
31735;DHT22;18313;48.518;9.124;2022-07-29T12:40:37;26.20;90.70
31735;DHT22;18313;48.518;9.124;2022-07-29T12:43:10;26.30;90.60
31735;DHT22;18313;48.518;9.124;2022-07-29T12:45:39;26.50;90.10
31735;DHT22;18313;48.518;9.124;2022-07-29T12:48:07;26.70;90.20
31735;DHT22;18313;48.518;9.124;2022-07-29T12:50:52;27.00;91.80
31735;DHT22;18313;48.518;9.124;2022-07-29T12:53:19;27.40;90.80
31735;DHT22;18313;48.518;9.124;2022-07-29T12:55:49;27.70;90.20
31735;DHT22;18313;48.518;9.124;2022-07-29T13:01:09;28.10;90.70
31735;DHT22;18313;48.518;9.124;2022-07-29T13:03:57;28.20;90.60
31735;DHT22;18313;48.518;9.124;2022-07-29T13:09:15;28.40;91.10
31735;DHT22;18313;48.518;9.124;2022-07-29T13:11:47;28.30;91.10
31735;DHT22;18313;48.518;9.124;2022-07-29T13:14:30;28.20;91.20
31735;DHT22;18313;48.518;9.124;2022-07-29T13:17:05;28.10;90.40
31735;DHT22;18313;48.518;9.124;2022-07-29T13:19:37;27.80;91.10
31735;DHT22;18313;48.518;9.124;2022-07-29T13:22:04;27.70;90.90
31735;DHT22;18313;48.518;9.124;2022-07-29T13:24:32;27.70;91.10
31735;DHT22;18313;48.518;9.124;2022-07-29T13:26:59;27.60;90.90
31735;DHT22;18313;48.518;9.124;2022-07-29T13:29:26;27.20;91.60
31735;DHT22;18313;48.518;9.124;2022-07-29T13:31:57;27.00;91.40
31735;DHT22;18313;48.518;9.124;2022-07-29T13:34:25;26.50;93.90
31735;DHT22;18313;48.518;9.124;2022-07-29T13:36:52;26.00;92.80
31735;DHT22;18313;48.518;9.124;2022-07-29T13:39:18;25.60;93.50
31735;DHT22;18313;48.518;9.124;2022-07-29T13:41:46;25.20;93.80
31735;DHT22;18313;48.518;9.124;2022-07-29T13:44:14;25.00;94.20
31735;DHT22;18313;48.518;9.124;2022-07-29T13:46:41;24.90;95.20
31735;DHT22;18313;48.518;9.124;2022-07-29T13:49:08;24.70;95.50
31735;DHT22;18313;48.518;9.124;2022-07-29T13:51:35;24.60;95.80
31735;DHT22;18313;48.518;9.124;2022-07-29T13:54:03;24.70;95.80
31735;DHT22;18313;48.518;9.124;2022-07-29T13:56:30;24.60;95.40
31735;DHT22;18313;48.518;9.124;2022-07-29T13:58:57;24.30;96.40
31735;DHT22;18313;48.518;9.124;2022-07-29T14:01:24;23.90;96.70
31735;DHT22;18313;48.518;9.124;2022-07-29T14:03:51;23.70;97.60
31735;DHT22;18313;48.518;9.124;2022-07-29T14:06:19;23.60;97.60
31735;DHT22;18313;48.518;9.124;2022-07-29T14:08:47;23.60;97.30
31735;DHT22;18313;48.518;9.124;2022-07-29T14:11:14;23.60;97.80
31735;DHT22;18313;48.518;9.124;2022-07-29T14:13:41;23.70;97.90
31735;DHT22;18313;48.518;9.124;2022-07-29T14:16:08;23.70;97.80
31735;DHT22;18313;48.518;9.124;2022-07-29T14:18:35;23.80;97.20
31735;DHT22;18313;48.518;9.124;2022-07-29T14:21:02;23.90;98.00
31735;DHT22;18313;48.518;9.124;2022-07-29T14:23:29;24.00;99.30
31735;DHT22;18313;48.518;9.124;2022-07-29T14:25:57;24.30;98.20
31735;DHT22;18313;48.518;9.124;2022-07-29T14:28:24;24.40;97.80
31735;DHT22;18313;48.518;9.124;2022-07-29T14:30:51;24.60;98.00
31735;DHT22;18313;48.518;9.124;2022-07-29T14:33:18;24.80;97.70
31735;DHT22;18313;48.518;9.124;2022-07-29T14:35:45;24.90;97.10
31735;DHT22;18313;48.518;9.124;2022-07-29T14:38:12;25.10;97.30
31735;DHT22;18313;48.518;9.124;2022-07-29T14:40:39;25.30;96.80
31735;DHT22;18313;48.518;9.124;2022-07-29T14:43:06;25.40;95.60
31735;DHT22;18313;48.518;9.124;2022-07-29T14:45:33;25.50;95.70
31735;DHT22;18313;48.518;9.124;2022-07-29T14:48:00;25.60;95.50
31735;DHT22;18313;48.518;9.124;2022-07-29T14:50:27;25.70;94.20
31735;DHT22;18313;48.518;9.124;2022-07-29T14:52:58;25.70;93.10
31735;DHT22;18313;48.518;9.124;2022-07-29T14:55:25;25.80;92.80
31735;DHT22;18313;48.518;9.124;2022-07-29T14:57:53;25.80;92.30
31735;DHT22;18313;48.518;9.124;2022-07-29T15:00:33;25.90;92.50
31735;DHT22;18313;48.518;9.124;2022-07-29T15:03:01;25.90;91.90
31735;DHT22;18313;48.518;9.124;2022-07-29T15:05:30;26.00;92.70
31735;DHT22;18313;48.518;9.124;2022-07-29T15:07:58;26.10;92.80
31735;DHT22;18313;48.518;9.124;2022-07-29T15:10:26;26.20;92.80
31735;DHT22;18313;48.518;9.124;2022-07-29T15:12:54;26.20;92.90
31735;DHT22;18313;48.518;9.124;2022-07-29T15:15:21;26.30;92.70
31735;DHT22;18313;48.518;9.124;2022-07-29T15:17:48;26.30;92.70
31735;DHT22;18313;48.518;9.124;2022-07-29T15:20:15;26.30;92.70
31735;DHT22;18313;48.518;9.124;2022-07-29T15:22:43;26.20;92.50
31735;DHT22;18313;48.518;9.124;2022-07-29T15:25:10;26.20;93.60
31735;DHT22;18313;48.518;9.124;2022-07-29T15:27:37;26.20;93.50
31735;DHT22;18313;48.518;9.124;2022-07-29T15:30:04;26.20;94.10
31735;DHT22;18313;48.518;9.124;2022-07-29T15:32:32;26.30;94.40
31735;DHT22;18313;48.518;9.124;2022-07-29T15:34:59;26.30;93.60
31735;DHT22;18313;48.518;9.124;2022-07-29T15:37:25;26.40;94.70
31735;DHT22;18313;48.518;9.124;2022-07-29T15:40:15;26.50;94.20
31735;DHT22;18313;48.518;9.124;2022-07-29T15:42:42;26.70;93.90
31735;DHT22;18313;48.518;9.124;2022-07-29T15:45:09;26.70;93.30
31735;DHT22;18313;48.518;9.124;2022-07-29T15:47:36;26.70;94.00
31735;DHT22;18313;48.518;9.124;2022-07-29T15:50:03;26.80;93.50
31735;DHT22;18313;48.518;9.124;2022-07-29T15:52:30;26.80;93.90
31735;DHT22;18313;48.518;9.124;2022-07-29T15:54:57;26.90;93.30
31735;DHT22;18313;48.518;9.124;2022-07-29T15:57:24;27.00;93.90
31735;DHT22;18313;48.518;9.124;2022-07-29T15:59:51;27.00;94.30
31735;DHT22;18313;48.518;9.124;2022-07-29T16:02:19;27.10;93.40
31735;DHT22;18313;48.518;9.124;2022-07-29T16:04:46;27.20;94.20
31735;DHT22;18313;48.518;9.124;2022-07-29T16:07:14;27.20;94.30
31735;DHT22;18313;48.518;9.124;2022-07-29T16:09:42;27.30;94.10
31735;DHT22;18313;48.518;9.124;2022-07-29T16:12:16;27.20;94.30
31735;DHT22;18313;48.518;9.124;2022-07-29T16:14:43;27.10;93.40
31735;DHT22;18313;48.518;9.124;2022-07-29T16:17:10;27.00;94.60
31735;DHT22;18313;48.518;9.124;2022-07-29T16:19:42;27.00;93.00
31735;DHT22;18313;48.518;9.124;2022-07-29T16:22:10;26.90;92.80
31735;DHT22;18313;48.518;9.124;2022-07-29T16:24:37;26.90;93.40
31735;DHT22;18313;48.518;9.124;2022-07-29T16:27:04;26.90;92.70
31735;DHT22;18313;48.518;9.124;2022-07-29T16:29:32;26.70;92.40
31735;DHT22;18313;48.518;9.124;2022-07-29T16:31:59;26.70;92.90
31735;DHT22;18313;48.518;9.124;2022-07-29T16:34:27;26.70;92.70
31735;DHT22;18313;48.518;9.124;2022-07-29T16:36:54;26.70;92.40